Impacts TAF Board INFO
FOR SITUATIONAL AWARENESS. NOT TO BE USED FOR FLIGHT PLANNING PURPOSES.
IDs:

KDCA - Washington/National, VA, US

Issued at 0538 UTC 15 Dec 2017
Updated at 0801 UTC 15 Dec 2017
Potential Impact None Slight Moderate High
Time0752Z 15/08Z 15/09Z 15/10Z 15/11Z 15/12Z 15/13Z 15/14Z 15/15Z 15/16Z 15/17Z 15/18Z 15/19Z 15/20Z>>
Type OBS PRVL PRVL PRVL PRVL PRVL PRVL PRVL PRVL PRVL PRVL PRVL PRVL PRVL
VIS 10 >6 >6 >6 >6 >6 >6 >6 >6 >6 >6 >6 >6 >6
CIG 180 150 45 45 45 45 45 45 45 30 30 30 30 30
Cover OVC OVC BKN BKN BKN BKN BKN BKN BKN OVC OVC OVC OVC OVC
FltCat VFR VFR VFR VFR VFR VFR VFR VFR VFR MVFR MVFR MVFR MVFR MVFR
WX -- -- -- -- -- -- -- -- -- -- -- -- -- --
WDir 70 20 VRB VRB VRB VRB VRB VRB VRB VRB VRB VRB VRB VRB
WSpd 6 5 3 3 3 3 3 3 3 3 3 3 3 3
WGst -- -- -- -- -- -- -- -- -- -- -- -- -- --

Raw TAF
KDCA 150538Z 1506/1612 02005KT P6SM OVC150
  FM150900 VRB03KT P6SM BKN045
  FM151600 VRB03KT P6SM OVC030
  FM152100 24004KT P6SM OVC015
  FM152200 25004KT P6SM BKN040
  FM152300 26005KT P6SM SCT070 SCT250


Raw METAR
KDCA 150752Z 07006KT 10SM OVC180 M01/M12 A3014 RMK AO2 SLP204 T10111117
KDCA 150652Z 07008KT 10SM OVC190 M01/M12 A3013 RMK AO2 SLP203 T10061117
KDCA 150552Z 03007KT 10SM SCT150 BKN210 M01/M12 A3013 RMK AO2 SLP200 T10111117 10022 21011 51007
KDCA 150452Z 03006KT 10SM BKN180 M01/M11 A3012 RMK AO2 SLP197 T10061106 400671006

METAR Board
Radar Display
Forecast Discussion

FOR SITUATIONAL AWARENESS. NOT TO BE USED FOR FLIGHT PLANNING PURPOSES.